Rochelle, Illinois
Current Conditions -  °F | °C
As of 6:55 AM on Wednesday 26 Nov 2014 (Local Time) from KRPJ Reporting Station
Haze Haze  
Wind Chill: -14°   Ceiling: Unl
Heat Index: -9°   Visibility: 5mi
Dew Point: -10°   Wind: 7mph
Humidity: 93%   Direction: 120°ESE
Pressure: 30.13"   Gusts: NA
Location:  41.93°N, 89.07°W
Report Text: KRPJ 261255Z AUTO 12006KT 5SM BR CLR M09/M10 A3013 RMK AO2 T10871097
Loading
Personal Weather Stations






























Interactive Weather Map New forecast layout! Learn more

10-Day Weather Forecast

Advertisements
Track Severe Weather on mobile